Punkttermin-Prognose für Heusenstamm
Modell: MOSMIX (Deutscher Wetterdienst)
Modelllaufzeit: 07 UTC
Aktualisierung: stündlich
Dienstag - 17.07.2018
| Wetter - | Temperaturen | Wind | Niederschlag | Druck | Sonne
Zeit GZ | Bewölkung | TT MAX MIN TG TM | DD FF FX1 | RR1 RR24 | PPPP | SS1 SS24
02:00 Uhr | --- | --- --- --- --- --- | --- --- --- | --- | --- | ---
03:00 Uhr | --- | --- --- --- --- --- | --- --- --- | --- | --- | ---
04:00 Uhr | --- | --- --- --- --- --- | --- --- --- | --- | --- | ---
05:00 Uhr | --- | --- --- --- --- --- | --- --- --- | --- | --- | ---
06:00 Uhr | --- | --- --- --- --- --- | --- --- --- | --- | --- | ---
07:00 Uhr | --- | --- --- --- --- --- | --- --- --- | --- | --- | ---
08:00 Uhr | --- | --- --- --- --- --- | --- --- --- | --- | --- | ---
09:00 Uhr | --- | --- --- --- --- --- | --- --- --- | --- | --- | ---
10:00 Uhr | wolkig | 24 --- --- 28 --- | S 6 --- | 0.0 | 1014 | 1.0
11:00 Uhr | leicht bewölkt | 26 --- --- 31 --- | SW 7 --- | 0.0 | 1014 | 1.0
12:00 Uhr | leicht bewölkt | 27 --- --- 33 --- | SW 7 --- | 0.0 | 1014 | 1.0
13:00 Uhr | leicht bewölkt | 29 --- --- 34 --- | W 9 --- | 0.0 | 1014 | 1.0
14:00 Uhr | wolkig | 30 --- --- 35 --- | W 9 --- | 0.0 | 1013 | 0.9
15:00 Uhr | wolkig | 30 --- --- 35 --- | W 11 --- | 0.0 | 1013 | 0.8
16:00 Uhr | wolkig | 31 --- --- 35 --- | W 11 --- | 0.0 | 1013 | 0.8
17:00 Uhr | wolkig | 30 --- --- 34 --- | W 11 --- | 0.0 | 1013 | 0.7
18:00 Uhr | wolkig | 30 --- --- 33 --- | W 11 --- | 0.0 | 1013 | 0.7
19:00 Uhr | wolkig | 29 --- --- 31 --- | W 11 --- | 0.0 | 1013 | 0.6
20:00 Uhr | wolkig | 28 32 --- 28 --- | NW 11 --- | 0.0 | 1013 | 0.6
21:00 Uhr | wolkig | 26 --- --- 25 --- | NW 9 --- | 0.0 | 1014 | 0.3
22:00 Uhr | wolkig | 24 --- --- 22 --- | NW 7 --- | 0.0 | 1014 | 0.2
23:00 Uhr | wolkig | 23 --- --- 20 --- | NW 6 --- | 0.0 | 1015 | 0.0
Mittwoch - 18.07.2018
| Wetter - | Temperaturen | Wind | Niederschlag | Druck | Sonne
Zeit GZ | Bewölkung | TT MAX MIN TG TM | DD FF FX1 | RR1 RR24 | PPPP | SS1 SS24
00:00 Uhr | wolkig | 22 --- --- 19 --- | NW 6 --- | 0.0 | 1015 | 0.0
01:00 Uhr | wolkig | 21 --- --- 18 --- | NW 4 --- | 0.0 | 1016 | 0.0
02:00 Uhr | wolkig | 20 --- --- 17 --- | NW 4 --- | 0.0 | 1016 | 0.0
03:00 Uhr | wolkig | 19 --- --- 17 --- | N 4 --- | 0.0 | 1016 | 0.0
04:00 Uhr | wolkig | 18 --- --- 16 --- | N 4 --- | 0.0 | 1017 | 0.0
05:00 Uhr | wolkig | 17 --- --- 16 --- | N 4 --- | 0.0 | 1017 | 0.0
06:00 Uhr | wolkig | 18 --- --- 16 --- | N 4 --- | 0.0 | 1017 | 0.1
07:00 Uhr | wolkig | 19 --- --- 19 --- | N 4 --- | 0.0 | 1017 | 0.3
08:00 Uhr | wolkig | 20 --- 16 21 --- | N 4 --- | 0.0 | 1018 | 0.5
09:00 Uhr | wolkig | 21 --- --- 25 --- | N 6 --- | 0.0 | 1018 | 0.7
10:00 Uhr | wolkig | 23 --- --- 28 --- | N 7 --- | 0.0 | 1018 | 0.8
11:00 Uhr | leicht bewölkt | 24 --- --- 30 --- | N 7 --- | 0.0 | 1018 | 0.8
12:00 Uhr | leicht bewölkt | 26 --- --- 32 --- | NW 9 --- | 0.0 | 1017 | 0.9
13:00 Uhr | leicht bewölkt | 26 --- --- 33 --- | NW 9 --- | 0.0 | 1017 | 0.9
14:00 Uhr | leicht bewölkt | 27 --- --- 34 --- | NW 9 --- | 0.0 | 1017 | 0.9
15:00 Uhr | wolkig | 28 --- --- 34 --- | NW 9 --- | 0.0 | 1016 | 0.8
16:00 Uhr | wolkig | 28 --- --- 34 --- | NW 11 --- | 0.0 | 1016 | 0.8
17:00 Uhr | wolkig | 28 --- --- 33 --- | NW 9 --- | 0.0 | 1016 | 0.8
18:00 Uhr | wolkig | 28 --- --- 32 --- | NW 9 --- | 0.0 | 1016 | 0.8
19:00 Uhr | wolkig | 28 --- --- 30 --- | NW 9 --- | 0.0 | 1016 | 0.8
20:00 Uhr | wolkig | 26 30 --- 27 --- | N 7 --- | 0.0 | 1016 | 0.7
21:00 Uhr | wolkig | 24 --- --- 24 --- | N 7 --- | 0.0 | 1016 | 0.5
22:00 Uhr | wolkig | 23 --- --- 21 --- | N 6 --- | 0.0 | 1016 | 0.2
23:00 Uhr | wolkig | 21 --- --- 19 23 | N 6 --- | 0.0 0.0 | 1017 | 0.1 11.3
Donnerstag - 19.07.2018
| Wetter - | Temperaturen | Wind | Niederschlag | Druck | Sonne
Zeit GZ | Bewölkung | TT MAX MIN TG TM | DD FF FX1 | RR1 RR24 | PPPP | SS1 SS24
00:00 Uhr | wolkig | 20 --- --- 17 --- | N 4 --- | 0.0 | 1017 | 0.0
01:00 Uhr | wolkig | 19 --- --- 16 --- | N 4 --- | 0.0 | 1017 | 0.0
02:00 Uhr | wolkig | 18 --- --- 15 --- | N 4 --- | 0.0 | 1018 | 0.0
03:00 Uhr | wolkig | 17 --- --- 14 --- | N 4 --- | 0.0 | 1018 | 0.0
04:00 Uhr | wolkig | 16 --- --- 14 --- | N 4 --- | 0.0 | 1018 | 0.0
05:00 Uhr | wolkig | 15 --- --- 13 --- | NO 4 --- | 0.0 | 1018 | 0.0
06:00 Uhr | wolkig | 15 --- --- 14 --- | NO 4 --- | 0.0 | 1018 | 0.2
07:00 Uhr | wolkig | 16 --- --- 16 --- | NO 6 --- | 0.0 | 1018 | 0.4
08:00 Uhr | wolkig | 18 --- 14 20 --- | NO 6 --- | 0.0 | 1018 | 0.6
09:00 Uhr | wolkig | 20 --- --- 24 --- | NO 7 --- | 0.0 | 1018 | 0.8
10:00 Uhr | leicht bewölkt | 22 --- --- 28 --- | NO 7 --- | 0.0 | 1018 | 0.9
11:00 Uhr | leicht bewölkt | 24 --- --- 31 --- | NO 7 --- | 0.0 | 1018 | 0.9
12:00 Uhr | leicht bewölkt | 26 --- --- 33 --- | NO 7 --- | 0.0 | 1018 | 1.0
13:00 Uhr | leicht bewölkt | 27 --- --- 35 --- | NO 7 --- | 0.0 | 1018 | 0.9
14:00 Uhr | leicht bewölkt | 28 --- --- 36 --- | NO 7 --- | 0.0 | 1017 | 0.9
15:00 Uhr | leicht bewölkt | 29 --- --- 36 --- | NO 7 --- | 0.0 | 1016 | 0.9
16:00 Uhr | leicht bewölkt | 30 --- --- 36 --- | NO 7 --- | 0.0 | 1016 | 0.8
17:00 Uhr | wolkig | 30 --- --- 34 --- | N 9 --- | 0.0 | 1015 | 0.8
18:00 Uhr | wolkig | 29 --- --- 33 --- | N 9 --- | 0.0 | 1015 | 0.8
19:00 Uhr | wolkig | 29 --- --- 31 --- | N 7 --- | 0.0 | 1015 | 0.7
20:00 Uhr | wolkig | 28 31 --- 28 --- | NO 7 --- | 0.0 | 1015 | 0.6
21:00 Uhr | wolkig | 25 --- --- 25 --- | NO 6 --- | 0.0 | 1015 | 0.4
22:00 Uhr | wolkig | 23 --- --- 21 --- | NO 4 --- | 0.0 | 1015 | 0.2
23:00 Uhr | wolkig | 21 --- --- 18 23 | NO 4 --- | 0.0 0.0 | 1015 | 0.1 11.7
Freitag - 20.07.2018
| Wetter - | Temperaturen | Wind | Niederschlag | Druck | Sonne
Zeit GZ | Bewölkung | TT MAX MIN TG TM | DD FF FX3 | RR3 RR24 | PPPP | SS3 SS24
02:00 Uhr | wolkig | 18 --- --- 15 --- | NO 4 --- | 0.0 | 1016 | 0.0
05:00 Uhr | wolkig | 16 --- --- 14 --- | NO 4 --- | 0.0 | 1015 | 0.0
08:00 Uhr | wolkig | 19 --- 14 20 --- | NO 4 --- | 0.0 | 1015 | 1.2
11:00 Uhr | leicht bewölkt | 26 --- --- 31 --- | O 7 --- | 0.0 | 1014 | 2.7
14:00 Uhr | leicht bewölkt | 30 --- --- 36 --- | O 9 --- | 0.0 | 1013 | 2.8
17:00 Uhr | wolkig | 31 --- --- 35 --- | SO 9 --- | 0.0 | 1012 | 2.4
20:00 Uhr | wolkig | 28 32 --- 28 --- | N 7 --- | 0.0 | 1012 | 1.7
23:00 Uhr | stark bewölkt | 22 --- --- 21 24 | N 4 --- | 0.0 0.0 | 1012 | 0.4 10.7
Samstag - 21.07.2018
| Wetter - | Temperaturen | Wind | Niederschlag | Druck | Sonne
Zeit GZ | Bewölkung | TT MAX MIN TG TM | DD FF FX3 | RR3 RR24 | PPPP | SS3 SS24
02:00 Uhr | stark bewölkt | 19 --- --- 18 --- | N 4 --- | 0.0 | 1013 | 0.0
05:00 Uhr | bedeckt | 18 --- --- 17 --- | NW 4 --- | 0.0 | 1012 | 0.0
08:00 Uhr | stark bewölkt | 19 --- 17 20 --- | NW 4 --- | 0.0 | 1013 | 0.3
11:00 Uhr | stark bewölkt | 23 --- --- 26 --- | W 6 --- | 0.0 | 1013 | 0.8
14:00 Uhr | wolkig | 26 --- --- 31 --- | W 9 --- | 0.0 | 1012 | 0.8
17:00 Uhr | stark bewölkt | 26 --- --- 29 --- | W 9 --- | 0.0 | 1012 | 0.9
20:00 Uhr | bedeckt | 25 28 --- 24 --- | NW 7 --- | 0.0 | 1012 | 0.6
23:00 Uhr | starker Regenschauer | 21 --- --- 19 22 | W 6 --- | 2.4 2.4 | 1013 | 0.1 3.6
Sonntag - 22.07.2018
| Wetter - | Temperaturen | Wind | Niederschlag | Druck | Sonne
Zeit GZ | Bewölkung | TT MAX MIN TG TM | DD FF FX3 | RR3 RR24 | PPPP | SS3 SS24
02:00 Uhr | bedeckt | 19 --- --- 18 --- | W 4 --- | 0.0 | 1014 | 0.0
05:00 Uhr | stark bewölkt | 18 --- --- 17 --- | NW 4 --- | 0.0 | 1014 | 0.0
08:00 Uhr | wolkig | 19 --- 17 20 --- | NW 6 --- | 0.0 | 1015 | 0.4
11:00 Uhr | wolkig | 24 --- --- 26 --- | SW 7 --- | 0.0 | 1014 | 1.1
14:00 Uhr | wolkig | 26 --- --- 30 --- | W 11 --- | 0.0 | 1014 | 1.4
17:00 Uhr | wolkig | 27 --- --- 29 --- | W 11 --- | 0.0 | 1015 | 1.3
20:00 Uhr | wolkig | 25 28 --- 25 --- | W 9 --- | 0.0 | 1014 | 1.2
23:00 Uhr | stark bewölkt | 21 --- --- 20 22 | NW 7 --- | 0.0 0.0 | 1015 | 0.4 5.8
Montag - 23.07.2018
| Wetter - | Temperaturen | Wind | Niederschlag | Druck | Sonne
Zeit GZ | Bewölkung | TT MAX MIN TG TM | DD FF FX3 | RR3 RR24 | PPPP | SS3 SS24
02:00 Uhr | wolkig | 19 --- --- 17 --- | N 6 --- | 0.0 | 1016 | 0.0
05:00 Uhr | wolkig | 19 --- --- 16 --- | N 4 --- | 0.0 | 1016 | 0.0
08:00 Uhr | wolkig | 20 --- 18 20 --- | N 6 --- | 0.0 | 1016 | 0.6
11:00 Uhr | wolkig | 25 --- --- 28 --- | N 7 --- | 0.0 | 1016 | 1.4
14:00 Uhr | wolkig | 27 --- --- 32 --- | W 9 --- | 0.0 | 1016 | 1.9
17:00 Uhr | wolkig | 29 --- --- 32 --- | W 9 --- | 0.0 | 1014 | 1.8
20:00 Uhr | wolkig | 26 30 --- 26 --- | N 9 --- | 0.0 | 1014 | 1.7
23:00 Uhr | wolkig | 21 --- --- 20 23 | N 6 --- | 0.0 0.0 | 1015 | 0.4 7.8
Dienstag - 24.07.2018
| Wetter - | Temperaturen | Wind | Niederschlag | Druck | Sonne
Zeit GZ | Bewölkung | TT MAX MIN TG TM | DD FF FX3 | RR3 RR24 | PPPP | SS3 SS24
02:00 Uhr | wolkig | 18 --- --- 18 --- | N 4 --- | 0.0 | 1015 | 0.0
05:00 Uhr | wolkig | 17 --- --- 17 --- | N 4 --- | 0.0 | 1015 | 0.0
08:00 Uhr | wolkig | 20 --- 16 21 --- | N 6 --- | 0.0 | 1014 | 0.6
11:00 Uhr | wolkig | 24 --- --- 29 --- | N 9 --- | 0.0 | 1014 | 1.7
14:00 Uhr | wolkig | 28 --- --- 33 --- | NW 11 --- | 0.0 | 1013 | 1.8
17:00 Uhr | wolkig | 29 --- --- 32 --- | W 11 --- | 0.0 | 1012 | 1.8
20:00 Uhr | stark bewölkt | 26 30 --- 27 --- | N 7 --- | 0.0 | 1012 | 1.4
23:00 Uhr | stark bewölkt | 22 --- --- 20 23 | SO 6 --- | 0.0 0.0 | 1012 | 0.3 7.6
Mittwoch - 25.07.2018
| Wetter - | Temperaturen | Wind | Niederschlag | Druck | Sonne
Zeit GZ | Bewölkung | TT MAX MIN TG TM | DD FF FX3 | RR3 RR24 | PPPP | SS3 SS24
02:00 Uhr | stark bewölkt | 19 --- --- 18 --- | S 4 --- | 0.0 | 1012 | 0.0
05:00 Uhr | stark bewölkt | 18 --- --- 17 --- | SW 4 --- | 0.0 | 1012 | 0.0
08:00 Uhr | wolkig | 20 --- 17 21 --- | NO 6 --- | 0.0 | 1012 | 0.6
11:00 Uhr | wolkig | 24 --- --- 28 --- | SO 7 --- | 0.0 | 1012 | 1.5
14:00 Uhr | wolkig | 28 --- --- 33 --- | SW 9 --- | 0.0 | 1011 | 1.7
17:00 Uhr | wolkig | 29 --- --- 32 --- | SW 9 --- | 0.0 | 1010 | 1.6
20:00 Uhr | wolkig | 26 30 --- 26 --- | N 7 --- | 0.0 | 1010 | 1.3
23:00 Uhr | stark bewölkt | 21 --- --- 20 23 | NW 6 --- | 0.0 0.0 | 1011 | 0.3 7.1
Donnerstag - 26.07.2018
| Wetter - | Temperaturen | Wind | Niederschlag | Druck | Sonne
Zeit GZ | Bewölkung | TT MAX MIN TG TM | DD FF FX3 | RR3 RR24 | PPPP | SS3 SS24
02:00 Uhr | stark bewölkt | 19 --- --- 18 --- | NW 4 --- | 0.0 | 1012 | 0.0
05:00 Uhr | wolkig | 18 --- --- 17 --- | W 4 --- | 0.0 | 1011 | 0.0
08:00 Uhr | wolkig | 20 --- 17 20 --- | N 6 --- | 0.0 | 1013 | 0.6
11:00 Uhr | wolkig | 24 --- --- 27 --- | NW 7 --- | 0.0 | 1013 | 1.6
14:00 Uhr | wolkig | 27 --- --- 32 --- | SW 9 --- | 0.0 | 1012 | 1.9
17:00 Uhr | wolkig | 28 --- --- 31 --- | W 9 --- | 0.0 | 1012 | 1.8
20:00 Uhr | wolkig | 26 30 --- 26 --- | W 7 --- | 0.0 | 1012 | 1.5
23:00 Uhr | wolkig | 21 --- --- 20 23 | W 6 --- | 0.0 0.0 | 1014 | 0.4 7.8
Freitag - 27.07.2018
| Wetter - | Temperaturen | Wind | Niederschlag | Druck | Sonne
Zeit GZ | Bewölkung | TT MAX MIN TG TM | DD FF FX3 | RR3 RR24 | PPPP | SS3 SS24
02:00 Uhr | wolkig | 19 --- --- 17 --- | NW 4 --- | 0.0 | 1014 | 0.0
05:00 Uhr | wolkig | 18 --- --- 17 --- | NW 4 --- | 0.0 | 1014 | 0.0
08:00 Uhr | wolkig | 18 --- 15 19 --- | SW 6 --- | 0.0 | 1016 | 0.6
---:00 Uhr | --- | --- --- --- --- --- | --- --- --- | --- | --- | ---
---:00 Uhr | --- | --- --- --- --- --- | --- --- --- | --- | --- | ---
---:00 Uhr | --- | --- --- --- --- --- | --- --- --- | --- | --- | ---
---:00 Uhr | --- | --- --- --- --- --- | --- --- --- | --- | --- | ---
---:00 Uhr | --- | --- --- --- --- --- | --- --- --- | --- --- | --- | ---


Wetter : Wetter/Bewölkung zum Termin (aktuelle Stunde) TT : Lufttemperatur in Grad Celsius zum Termin MAX : Maximum Lufttemperatur in Grad Celsius letzte 12 Stunden MIN : Minimum Lufttemperatur der vergangenen Nacht in Grad Celsius letzte 12 Stunden TG : Temperatur in 5cm überm Erdboden TM : Tagesmittel Lufttemperatur in Grad Celsius letzte 24 Stunden DD : Windrichtung zum Termin FF : Windgeschwindigkeit zum Termin FX1 : höchste Windspitze im Bezugszeitraum letzte 1 Stunde in km/h FX3 : höchste Windspitze im Bezugszeitraum letzte 3 Stunden in km/h PPPP : reduzierter Luftdruck auf Meereshöhe in hPa zum Termin RR1 : Niederschlagsmenge im Bezugszeitraum letzte 1 Stunde in mm = l/qm RR3 : Niederschlagsmenge im Bezugszeitraum letzte 3 Stunden in mm = l/qm RR24 : Niederschlagsmenge im Bezugszeitraum letzte 24 Stunden in mm = l/qm SS1 : Sonnenscheindauer letzte 1 Stunde SS3 : Sonnenscheindauer letzte 3 Stunden SS24 : Sonnenscheindauer letzte 24 Stunden --- : Wert nicht vorhanden